Time;durP1;ratioP1;P1;durP2;ratioP2;P2;SDS_P1;SDS_P2;PMS_P1;PMS_P2;Temp;Humidity;BMP_temperature;BMP_pressure;BME280_temperature;BME280_humidity;BME280_pressure;Samples;Min_cycle;Max_cycle;Signal;HPM_P1;HPM_P2
2021/07/18 00:00:08;;;;;;;30.27;21.35;;;563.90;2432.00;;;;;;5094932;28;20036;-80
2021/07/18 00:02:34;;;;;;;34.35;21.60;;;563.90;2432.00;;;;;;5093922;28;20070;-76
2021/07/18 00:05:01;;;;;;;30.13;21.63;;;563.60;2432.00;;;;;;5093870;28;20481;-77
2021/07/18 00:07:26;;;;;;;32.05;17.48;;;563.70;2432.00;;;;;;5093331;28;20085;-77
2021/07/18 00:09:52;;;;;;;19.92;13.70;;;563.60;2432.00;;;;;;5093381;28;20469;-77
2021/07/18 00:12:18;;;;;;;14.55;10.60;;;563.70;2432.00;;;;;;5093540;28;20059;-79
2021/07/18 00:14:45;;;;;;;13.32;9.65;;;563.60;2432.00;;;;;;5093623;28;20469;-78
2021/07/18 00:17:11;;;;;;;12.07;7.40;;;563.60;2432.00;;;;;;5118208;27;20398;-77
2021/07/18 00:19:37;;;;;;;8.82;6.13;;;563.50;2432.00;;;;;;5094669;28;20017;-78
2021/07/18 00:22:04;;;;;;;9.32;5.68;;;563.60;2432.00;;;;;;5094920;28;20035;-82
2021/07/18 00:24:30;;;;;;;9.23;5.38;;;563.60;2432.00;;;;;;5094984;28;20020;-81
2021/07/18 00:26:55;;;;;;;8.48;5.70;;;563.60;2432.00;;;;;;5093735;28;20108;-77
2021/07/18 00:29:21;;;;;;;8.90;5.32;;;563.60;2432.00;;;;;;5106285;28;20031;-78
2021/07/18 00:31:47;;;;;;;9.15;5.65;;;563.40;2432.00;;;;;;5113791;28;20599;-80
2021/07/18 00:34:12;;;;;;;9.32;5.38;;;563.40;2432.00;;;;;;5113947;28;20016;-82
2021/07/18 00:36:38;;;;;;;7.47;5.43;;;563.60;2432.00;;;;;;5114739;28;20031;-83
2021/07/18 00:39:05;;;;;;;8.05;5.47;;;563.60;2432.00;;;;;;5095896;28;20024;-77
2021/07/18 00:41:31;;;;;;;8.07;4.93;;;563.40;2432.00;;;;;;5093579;28;20443;-78
2021/07/18 00:43:56;;;;;;;8.38;5.03;;;563.40;2432.00;;;;;;5092254;28;20024;-77
2021/07/18 00:46:22;;;;;;;12.23;6.53;;;563.50;2432.00;;;;;;5093852;28;20028;-83
2021/07/18 00:48:48;;;;;;;8.38;5.43;;;563.30;2432.00;;;;;;5096887;28;20369;-77
2021/07/18 00:51:14;;;;;;;10.18;5.60;;;563.30;2432.00;;;;;;5103722;28;20039;-77
2021/07/18 00:53:40;;;;;;;7.50;4.68;;;563.30;2432.00;;;;;;5098813;28;20035;-78
2021/07/18 00:56:06;;;;;;;6.40;4.75;;;563.50;2432.00;;;;;;5093838;28;20036;-77
2021/07/18 00:58:32;;;;;;;6.72;4.60;;;563.30;2432.00;;;;;;5093191;28;20039;-77
2021/07/18 01:00:58;;;;;;;9.75;4.43;;;563.40;2432.00;;;;;;5094200;28;20100;-78
2021/07/18 01:03:26;;;;;;;6.53;5.07;;;563.60;2432.00;;;;;;5094317;28;20020;-77
2021/07/18 01:05:52;;;;;;;10.35;4.97;;;563.60;2432.00;;;;;;5094318;28;20025;-84
2021/07/18 01:08:18;;;;;;;8.68;6.28;;;563.30;2432.00;;;;;;5092959;28;20031;-76
2021/07/18 01:10:44;;;;;;;9.80;4.80;;;538.50;2406.40;;;;;;5092956;28;20028;-80
2021/07/18 01:13:10;;;;;;;9.77;5.05;;;563.20;2432.00;;;;;;5093204;28;20111;-78
2021/07/18 01:15:37;;;;;;;9.57;4.88;;;563.20;2432.00;;;;;;5091949;28;20023;-79
2021/07/18 01:18:03;;;;;;;7.72;4.72;;;563.20;2432.00;;;;;;5092479;28;20035;-82
2021/07/18 01:20:29;;;;;;;6.97;5.07;;;538.50;2406.40;;;;;;5094069;28;20050;-82
2021/07/18 01:22:55;;;;;;;12.75;5.72;;;563.20;2432.00;;;;;;5093974;28;20101;-83
2021/07/18 01:25:21;;;;;;;7.45;5.25;;;538.50;2406.40;;;;;;5092813;28;20062;-77
2021/07/18 01:27:49;;;;;;;10.50;5.35;;;538.50;2406.40;;;;;;5093521;28;20370;-83
2021/07/18 01:30:15;;;;;;;9.80;5.28;;;563.20;2432.00;;;;;;5093750;28;20084;-83
2021/07/18 01:32:42;;;;;;;7.13;4.68;;;563.30;2432.00;;;;;;5093744;28;20032;-77
2021/07/18 01:35:08;;;;;;;6.47;4.68;;;563.30;2432.00;;;;;;5093667;28;20016;-78
2021/07/18 01:37:34;;;;;;;7.50;4.72;;;538.40;2406.40;;;;;;5092360;28;20024;-84
2021/07/18 01:40:00;;;;;;;7.60;5.32;;;563.20;2432.00;;;;;;5092506;28;20058;-77
2021/07/18 01:42:26;;;;;;;9.90;6.32;;;563.20;2432.00;;;;;;5092790;28;20081;-84
2021/07/18 01:44:52;;;;;;;10.57;4.93;;;563.30;2432.00;;;;;;5093565;28;20103;-77
2021/07/18 01:47:18;;;;;;;12.35;6.00;;;563.30;2432.00;;;;;;5092492;28;20076;-77
2021/07/18 01:49:44;;;;;;;10.15;6.35;;;563.30;2432.00;;;;;;5092379;28;20032;-78
2021/07/18 01:52:11;;;;;;;10.05;6.03;;;563.40;2432.00;;;;;;5093341;28;20109;-76
2021/07/18 01:54:37;;;;;;;14.35;5.70;;;563.40;2432.00;;;;;;5093455;28;20063;-77
2021/07/18 01:57:17;;;;;;;9.15;6.00;;;563.30;2432.00;;;;;;5092080;28;20035;-80
2021/07/18 01:59:44;;;;;;;12.20;6.57;;;563.30;2432.00;;;;;;5091684;28;20040;-77
2021/07/18 02:02:10;;;;;;;11.32;6.45;;;563.30;2432.00;;;;;;5092426;28;20036;-75
2021/07/18 02:04:36;;;;;;;8.35;5.72;;;563.20;2432.00;;;;;;5092476;28;20031;-76
2021/07/18 02:07:04;;;;;;;8.85;6.47;;;538.50;2406.40;;;;;;5093294;28;20121;-77
2021/07/18 02:09:30;;;;;;;13.20;6.97;;;538.50;2406.40;;;;;;5092269;28;20034;-76
2021/07/18 02:11:56;;;;;;;11.15;6.78;;;538.50;2406.40;;;;;;5091997;28;20478;-84
2021/07/18 02:14:22;;;;;;;10.32;6.60;;;538.50;2406.40;;;;;;5092145;28;20024;-78
2021/07/18 02:16:50;;;;;;;9.70;7.35;;;538.50;2406.40;;;;;;5092118;28;20020;-84
2021/07/18 02:19:16;;;;;;;11.75;7.57;;;538.40;2406.40;;;;;;5092104;28;20028;-77
2021/07/18 02:21:42;;;;;;;9.23;6.32;;;538.40;2406.40;;;;;;5092039;28;20029;-77
2021/07/18 02:24:08;;;;;;;12.63;7.88;;;538.40;2406.40;;;;;;5093182;28;20028;-83
2021/07/18 02:26:34;;;;;;;10.52;7.20;;;538.50;2406.40;;;;;;5093109;28;20377;-77
2021/07/18 02:29:00;;;;;;;9.10;6.85;;;538.50;2406.40;;;;;;5091541;28;20028;-78
2021/07/18 02:31:27;;;;;;;13.70;7.70;;;538.20;2406.40;;;;;;5092869;28;20035;-81
2021/07/18 02:33:53;;;;;;;12.32;7.85;;;538.00;2406.40;;;;;;5093097;28;20594;-76
2021/07/18 02:36:19;;;;;;;11.30;7.15;;;537.90;2406.40;;;;;;5093207;28;20020;-76
2021/07/18 02:38:45;;;;;;;15.98;8.00;;;538.10;2406.40;;;;;;5092975;28;20028;-75
2021/07/18 02:41:12;;;;;;;10.85;7.05;;;538.00;2406.40;;;;;;5093097;28;20106;-77
2021/07/18 02:43:38;;;;;;;11.75;8.13;;;538.30;2406.40;;;;;;5092896;28;20012;-79
2021/07/18 02:46:03;;;;;;;11.90;7.63;;;538.20;2406.40;;;;;;5093174;28;20051;-80
2021/07/18 02:48:29;;;;;;;15.07;8.45;;;538.30;2406.40;;;;;;5091915;28;20051;-77
2021/07/18 02:50:55;;;;;;;10.77;7.63;;;563.20;2432.00;;;;;;5092285;28;20040;-77
2021/07/18 02:53:20;;;;;;;12.68;7.78;;;563.20;2432.00;;;;;;5093089;28;20350;-77
2021/07/18 02:55:46;;;;;;;10.25;7.28;;;563.20;2432.00;;;;;;5092963;28;20024;-77
2021/07/18 02:58:12;;;;;;;15.27;8.20;;;563.30;2432.00;;;;;;5091434;28;20024;-77
2021/07/18 03:00:38;;;;;;;13.45;8.35;;;563.30;2432.00;;;;;;5091304;28;20382;-82
2021/07/18 03:03:05;;;;;;;14.15;9.25;;;563.50;2432.00;;;;;;5091727;28;20162;-78
2021/07/18 03:05:31;;;;;;;14.32;7.88;;;563.30;2432.00;;;;;;5092925;28;20020;-76
2021/07/18 03:07:56;;;;;;;11.23;8.15;;;563.40;2432.00;;;;;;5091569;28;20035;-79
2021/07/18 03:10:23;;;;;;;12.40;8.02;;;563.60;2432.00;;;;;;5094951;28;20033;-81
2021/07/18 03:12:49;;;;;;;11.52;8.38;;;563.60;2432.00;;;;;;5095288;28;20024;-78
2021/07/18 03:15:15;;;;;;;11.23;7.72;;;563.60;2432.00;;;;;;5095184;28;20093;-78
2021/07/18 03:17:42;;;;;;;12.40;7.88;;;563.60;2432.00;;;;;;5095459;28;20031;-82
2021/07/18 03:20:11;;;;;;;17.38;10.48;;;563.60;2432.00;;;;;;5095051;28;20028;-79
2021/07/18 03:22:37;;;;;;;16.90;8.77;;;563.60;2432.00;;;;;;5096138;28;20461;-77
2021/07/18 03:25:04;;;;;;;11.52;8.75;;;563.60;2432.00;;;;;;5094924;28;20120;-77
2021/07/18 03:27:30;;;;;;;11.32;7.78;;;563.60;2432.00;;;;;;5096447;28;20046;-77
2021/07/18 03:29:55;;;;;;;13.07;7.90;;;563.60;2432.00;;;;;;5094216;28;20548;-77
2021/07/18 03:32:21;;;;;;;14.80;7.90;;;563.60;2432.00;;;;;;5094828;28;20134;-84
2021/07/18 03:34:47;;;;;;;11.27;8.27;;;563.60;2432.00;;;;;;5095885;28;20024;-78
2021/07/18 03:37:13;;;;;;;11.70;7.53;;;563.60;2432.00;;;;;;5095902;28;20099;-79
2021/07/18 03:39:39;;;;;;;12.20;8.25;;;563.60;2432.00;;;;;;5094850;28;20486;-83
2021/07/18 03:42:05;;;;;;;11.18;7.78;;;563.60;2432.00;;;;;;5095088;28;20064;-77
2021/07/18 03:44:30;;;;;;;13.82;8.40;;;563.60;2432.00;;;;;;5094442;28;20016;-82
2021/07/18 03:46:56;;;;;;;11.50;8.40;;;563.50;2432.00;;;;;;5095986;28;20034;-82
2021/07/18 03:49:22;;;;;;;15.23;8.50;;;563.60;2432.00;;;;;;5094689;28;20373;-78
2021/07/18 03:51:48;;;;;;;12.90;8.38;;;563.60;2432.00;;;;;;5094331;28;20040;-83
2021/07/18 03:54:13;;;;;;;11.68;8.65;;;563.70;2432.00;;;;;;5094550;28;20032;-76
2021/07/18 03:56:39;;;;;;;15.23;8.85;;;563.60;2432.00;;;;;;5095523;28;20026;-76
2021/07/18 03:59:05;;;;;;;15.13;9.02;;;563.60;2432.00;;;;;;5094050;28;20086;-76
2021/07/18 04:01:30;;;;;;;12.43;8.05;;;563.60;2432.00;;;;;;5094125;28;20056;-77
2021/07/18 04:03:56;;;;;;;13.27;8.77;;;563.60;2432.00;;;;;;5094175;28;20081;-78
2021/07/18 04:06:22;;;;;;;15.23;10.45;;;563.70;2432.00;;;;;;5095512;28;20063;-82
2021/07/18 04:08:48;;;;;;;15.10;9.88;;;563.70;2432.00;;;;;;5094153;28;20035;-77
2021/07/18 04:11:14;;;;;;;16.63;8.15;;;563.70;2432.00;;;;;;5094706;28;20051;-79
2021/07/18 04:13:40;;;;;;;10.80;7.28;;;563.70;2432.00;;;;;;5094216;28;20020;-76
2021/07/18 04:16:06;;;;;;;10.07;7.03;;;563.70;2432.00;;;;;;5095243;28;20073;-82
2021/07/18 04:18:33;;;;;;;8.50;6.70;;;563.70;2432.00;;;;;;5094137;28;20047;-76
2021/07/18 04:21:00;;;;;;;12.60;7.63;;;563.90;2432.00;;;;;;5094726;28;20032;-78
2021/07/18 04:23:25;;;;;;;11.95;7.47;;;564.00;2432.00;;;;;;5095083;28;20020;-80
2021/07/18 04:25:51;;;;;;;12.13;7.72;;;564.00;2432.00;;;;;;5093531;28;20032;-82
2021/07/18 04:28:17;;;;;;;10.73;7.15;;;564.00;2432.00;;;;;;5094697;28;20027;-76
2021/07/18 04:30:44;;;;;;;11.45;7.18;;;564.10;2432.00;;;;;;5093387;28;20028;-78
2021/07/18 04:33:10;;;;;;;11.52;7.22;;;564.10;2432.00;;;;;;5093750;28;20032;-78
2021/07/18 04:35:36;;;;;;;14.60;7.88;;;588.80;2432.00;;;;;;5094916;28;20076;-76
2021/07/18 04:38:06;;;;;;;10.18;7.28;;;588.80;2432.00;;;;;;5094683;28;20035;-77
2021/07/18 04:40:32;;;;;;;11.55;7.75;;;588.80;2432.00;;;;;;5094672;28;20472;-77
2021/07/18 04:42:58;;;;;;;10.77;8.10;;;588.80;2432.00;;;;;;5093328;28;20073;-80
2021/07/18 04:45:24;;;;;;;12.60;8.25;;;564.10;2432.00;;;;;;5094644;28;20035;-76
2021/07/18 04:47:52;;;;;;;12.07;7.80;;;588.80;2432.00;;;;;;5093423;28;20073;-77
2021/07/18 04:50:20;;;;;;;10.85;8.23;;;588.80;2432.00;;;;;;5093005;28;20077;-77
2021/07/18 04:52:46;;;;;;;11.35;7.65;;;588.80;2432.00;;;;;;5094483;28;20024;-79
2021/07/18 04:55:12;;;;;;;12.65;7.78;;;588.80;2432.00;;;;;;5093062;28;20035;-78
2021/07/18 04:57:39;;;;;;;11.13;8.10;;;588.90;2432.00;;;;;;5093368;28;20028;-78
2021/07/18 05:00:07;;;;;;;15.40;10.00;;;588.90;2432.00;;;;;;5092435;28;20047;-78
2021/07/18 05:02:33;;;;;;;16.08;9.77;;;588.80;2432.00;;;;;;5094305;28;20073;-78
2021/07/18 05:04:59;;;;;;;12.40;9.00;;;564.10;2432.00;;;;;;5094236;28;20020;-79
2021/07/18 05:07:24;;;;;;;10.18;7.20;;;588.80;2432.00;;;;;;5093090;28;20065;-79
2021/07/18 05:09:50;;;;;;;9.75;7.15;;;588.90;2432.00;;;;;;5093012;28;20032;-79
2021/07/18 05:12:16;;;;;;;12.13;7.20;;;588.80;2432.00;;;;;;5094090;28;20477;-79
2021/07/18 05:14:42;;;;;;;8.65;7.32;;;564.10;2432.00;;;;;;5092929;28;20138;-79
2021/07/18 05:17:09;;;;;;;13.43;8.80;;;564.10;2432.00;;;;;;5092718;28;20027;-79
2021/07/18 05:19:35;;;;;;;11.43;7.97;;;564.10;2432.00;;;;;;5092669;28;20132;-79
2021/07/18 05:22:00;;;;;;;13.35;8.80;;;564.10;2432.00;;;;;;5093722;28;20107;-79
2021/07/18 05:24:26;;;;;;;11.93;8.32;;;564.10;2432.00;;;;;;5092561;28;20388;-79
2021/07/18 05:26:52;;;;;;;12.23;8.55;;;588.80;2432.00;;;;;;5092101;28;20016;-77
2021/07/18 05:29:18;;;;;;;10.60;8.18;;;588.90;2432.00;;;;;;5092985;28;20028;-77
2021/07/18 05:31:45;;;;;;;9.50;6.63;;;564.10;2432.00;;;;;;5091621;28;20040;-77
2021/07/18 05:34:11;;;;;;;11.77;7.78;;;588.80;2432.00;;;;;;5091738;28;20063;-76
2021/07/18 05:36:37;;;;;;;8.23;6.53;;;588.90;2432.00;;;;;;5093119;28;20140;-77
2021/07/18 05:39:04;;;;;;;24.10;7.65;;;589.00;2432.00;;;;;;5075729;28;20045;-78
2021/07/18 05:41:30;;;;;;;15.23;8.18;;;588.80;2432.00;;;;;;5071958;28;20029;-77
2021/07/18 05:43:56;;;;;;;14.35;9.27;;;588.80;2432.00;;;;;;5072028;28;20044;-75
2021/07/18 05:46:22;;;;;;;13.43;9.02;;;588.90;2432.00;;;;;;5085048;28;20481;-79
2021/07/18 05:48:48;;;;;;;14.10;8.75;;;589.00;2432.00;;;;;;5126026;27;20031;-76
2021/07/18 05:51:14;;;;;;;8.90;6.57;;;589.00;2432.00;;;;;;5092821;28;20032;-77
2021/07/18 05:53:39;;;;;;;11.38;7.50;;;589.10;2432.00;;;;;;5090578;28;20133;-76
2021/07/18 05:56:05;;;;;;;12.93;8.65;;;589.20;2432.00;;;;;;5091704;28;20020;-75
2021/07/18 05:58:31;;;;;;;11.30;7.82;;;589.20;2432.00;;;;;;5091601;28;20024;-77
2021/07/18 06:00:57;;;;;;;9.05;7.72;;;589.30;2432.00;;;;;;5090743;28;20048;-76
2021/07/18 06:03:23;;;;;;;11.15;7.70;;;589.50;2432.00;;;;;;5090407;28;20417;-76
2021/07/18 06:05:49;;;;;;;11.52;7.47;;;589.50;2432.00;;;;;;5089555;28;20024;-77
2021/07/18 06:08:15;;;;;;;12.25;8.68;;;589.60;2432.00;;;;;;5091661;28;20024;-76
2021/07/18 06:10:41;;;;;;;9.60;7.85;;;589.50;2432.00;;;;;;5091607;28;20035;-76
2021/07/18 06:13:06;;;;;;;15.55;9.18;;;589.60;2432.00;;;;;;5091082;28;20481;-79
2021/07/18 06:15:32;;;;;;;15.35;9.80;;;589.70;2432.00;;;;;;5092393;28;20111;-81
2021/07/18 06:17:58;;;;;;;12.05;9.48;;;614.40;2432.00;;;;;;5092606;28;20469;-77
2021/07/18 06:20:24;;;;;;;10.45;9.02;;;614.40;2432.00;;;;;;5092634;28;20496;-78
2021/07/18 06:22:52;;;;;;;11.05;8.90;;;614.50;2432.00;;;;;;5092413;28;20039;-77
2021/07/18 06:25:18;;;;;;;11.23;8.88;;;614.50;2432.00;;;;;;5088845;28;20361;-78
2021/07/18 06:27:46;;;;;;;13.55;9.57;;;614.50;2432.00;;;;;;5092463;28;20021;-78
2021/07/18 06:30:14;;;;;;;12.07;9.85;;;614.60;2432.00;;;;;;5090364;28;20027;-78
2021/07/18 06:32:40;;;;;;;11.23;9.32;;;614.70;2432.00;;;;;;5116414;28;20052;-77
2021/07/18 06:35:08;;;;;;;13.00;10.32;;;614.70;2432.00;;;;;;5091072;28;20073;-78
2021/07/18 06:37:34;;;;;;;15.75;10.52;;;614.80;2432.00;;;;;;5089744;28;20028;-77
2021/07/18 06:40:00;;;;;;;12.27;8.98;;;614.80;2432.00;;;;;;5090857;28;20031;-75
2021/07/18 06:42:26;;;;;;;11.77;10.55;;;614.80;2432.00;;;;;;5092394;28;20016;-78
2021/07/18 06:44:53;;;;;;;13.27;10.00;;;614.80;2432.00;;;;;;5095193;28;20492;-75
2021/07/18 06:47:18;;;;;;;12.90;8.98;;;614.90;2432.00;;;;;;5095837;28;20108;-79
2021/07/18 06:49:44;;;;;;;11.57;9.02;;;615.00;2432.00;;;;;;5096070;28;20032;-77
2021/07/18 06:52:11;;;;;;;12.43;11.02;;;615.00;2432.00;;;;;;5095617;28;20036;-78
2021/07/18 06:54:36;;;;;;;11.63;9.55;;;615.10;2432.00;;;;;;5095483;28;20469;-78
2021/07/18 06:57:02;;;;;;;14.57;10.05;;;615.10;2432.00;;;;;;5095357;28;20032;-79
2021/07/18 06:59:28;;;;;;;10.90;9.38;;;615.30;2432.00;;;;;;5094500;28;20028;-80
2021/07/18 07:01:54;;;;;;;11.65;9.23;;;615.20;2432.00;;;;;;5096534;28;20040;-79
2021/07/18 07:04:19;;;;;;;13.70;10.05;;;615.30;2432.00;;;;;;5095273;28;20028;-78
2021/07/18 07:06:45;;;;;;;13.73;10.65;;;615.30;2432.00;;;;;;5094999;28;20024;-78
2021/07/18 07:09:11;;;;;;;14.75;10.88;;;615.20;2432.00;;;;;;5095207;28;20099;-79
2021/07/18 07:11:37;;;;;;;12.93;10.45;;;615.30;2432.00;;;;;;5094392;28;20036;-78
2021/07/18 07:14:02;;;;;;;12.25;10.32;;;640.00;2432.00;;;;;;5095263;28;20059;-79
2021/07/18 07:16:28;;;;;;;14.68;11.50;;;640.10;2432.00;;;;;;5094334;28;20036;-78
2021/07/18 07:18:54;;;;;;;14.18;9.40;;;640.10;2432.00;;;;;;5095996;28;20462;-78
2021/07/18 07:21:19;;;;;;;10.50;9.45;;;640.20;2432.00;;;;;;5094851;28;20028;-77
2021/07/18 07:23:45;;;;;;;14.40;11.25;;;640.40;2432.00;;;;;;5093148;28;20032;-77
2021/07/18 07:26:11;;;;;;;13.80;12.40;;;640.40;2432.00;;;;;;5093926;28;20165;-76
2021/07/18 07:28:37;;;;;;;12.07;9.73;;;640.50;2432.00;;;;;;5095181;28;20020;-76
2021/07/18 07:31:04;;;;;;;12.25;9.30;;;640.60;2432.00;;;;;;5095272;28;20485;-76
2021/07/18 07:33:30;;;;;;;11.90;8.43;;;640.70;2432.00;;;;;;5094088;28;20028;-79
2021/07/18 07:35:56;;;;;;;13.18;8.35;;;640.90;2432.00;;;;;;5094341;28;20035;-76
2021/07/18 07:38:23;;;;;;;12.38;7.90;;;640.90;2432.00;;;;;;5084205;28;20024;-76
2021/07/18 07:40:49;;;;;;;12.25;8.27;;;665.60;2432.00;;;;;;5074481;28;20482;-80
2021/07/18 07:43:15;;;;;;;10.43;7.72;;;665.80;2432.00;;;;;;5075541;28;20020;-76
2021/07/18 07:45:40;;;;;;;8.23;6.35;;;665.90;2432.00;;;;;;5075558;28;20462;-80
2021/07/18 07:48:06;;;;;;;10.27;7.25;;;666.00;2432.00;;;;;;5075355;28;20484;-76
2021/07/18 07:50:32;;;;;;;8.68;6.50;;;666.20;2432.00;;;;;;5075288;28;20450;-77
2021/07/18 07:52:58;;;;;;;7.93;6.75;;;666.20;2432.00;;;;;;5075247;28;20028;-74
2021/07/18 07:55:24;;;;;;;11.63;6.70;;;666.00;2432.00;;;;;;5074742;28;20486;-77
2021/07/18 07:57:50;;;;;;;9.88;6.95;;;666.20;2432.00;;;;;;5087677;28;20053;-77
2021/07/18 08:00:17;;;;;;;15.77;6.90;;;666.30;2432.00;;;;;;5094279;28;20039;-77
2021/07/18 08:02:46;;;;;;;12.25;6.93;;;666.30;2432.00;;;;;;5093473;28;20028;-76
2021/07/18 08:05:12;;;;;;;8.68;6.53;;;666.40;2432.00;;;;;;5092330;28;20020;-76
2021/07/18 08:07:39;;;;;;;15.63;7.53;;;666.50;2432.00;;;;;;5093738;28;20119;-77
2021/07/18 08:10:07;;;;;;;11.32;6.40;;;691.20;2432.00;;;;;;5093636;28;20028;-80
2021/07/18 08:12:33;;;;;;;8.73;6.00;;;691.20;2406.40;;;;;;5094141;28;20036;-75
2021/07/18 08:14:59;;;;;;;16.13;7.15;;;666.50;2432.00;;;;;;5093732;28;20423;-80
2021/07/18 08:17:25;;;;;;;13.82;6.97;;;666.50;2432.00;;;;;;5094907;28;20442;-76
2021/07/18 08:19:50;;;;;;;8.90;6.70;;;666.50;2432.00;;;;;;5093727;28;20031;-78
2021/07/18 08:22:16;;;;;;;13.68;7.68;;;666.30;2432.00;;;;;;5093706;28;20060;-78
2021/07/18 08:24:42;;;;;;;14.73;7.35;;;666.30;2432.00;;;;;;5093599;28;20362;-76
2021/07/18 08:27:07;;;;;;;11.32;6.43;;;666.40;2432.00;;;;;;5095024;28;20109;-81
2021/07/18 08:29:33;;;;;;;16.95;7.13;;;666.50;2432.00;;;;;;5092793;28;20035;-78
2021/07/18 08:31:59;;;;;;;10.73;7.70;;;691.20;2406.40;;;;;;5093740;28;20150;-77
2021/07/18 08:34:26;;;;;;;12.35;8.13;;;666.50;2432.00;;;;;;5094538;28;20035;-76
2021/07/18 08:36:52;;;;;;;11.95;7.20;;;666.40;2432.00;;;;;;5094941;28;20089;-77
2021/07/18 08:39:18;;;;;;;8.55;6.72;;;666.50;2432.00;;;;;;5093829;28;20042;-76
2021/07/18 08:41:46;;;;;;;9.40;6.85;;;691.30;2406.40;;;;;;5093561;28;20024;-78
2021/07/18 08:44:13;;;;;;;12.13;7.25;;;691.40;2432.00;;;;;;5094683;28;20599;-79
2021/07/18 08:46:40;;;;;;;9.23;6.18;;;691.50;2380.80;;;;;;5094592;28;20024;-77
2021/07/18 08:49:07;;;;;;;8.77;6.95;;;691.50;2432.00;;;;;;5093549;28;20039;-79
2021/07/18 08:51:34;;;;;;;10.70;6.78;;;691.90;2380.80;;;;;;5093919;28;20028;-75
2021/07/18 08:54:00;;;;;;;9.52;6.70;;;691.50;2406.40;;;;;;5094230;28;20111;-75
2021/07/18 08:56:29;;;;;;;12.00;6.68;;;691.70;2406.40;;;;;;5093355;28;20032;-78
2021/07/18 08:58:54;;;;;;;8.18;6.85;;;691.70;2380.80;;;;;;5093661;28;20032;-79
2021/07/18 09:01:20;;;;;;;9.30;7.28;;;691.80;2432.00;;;;;;5092716;28;20109;-74
2021/07/18 09:03:47;;;;;;;10.40;6.60;;;691.90;2380.80;;;;;;5092938;28;20016;-81
2021/07/18 09:06:13;;;;;;;10.35;6.22;;;692.10;2432.00;;;;;;5126843;27;20062;-77
2021/07/18 09:08:47;;;;;;;10.15;6.72;;;716.80;2406.40;;;;;;5093415;28;20044;-80
2021/07/18 09:11:26;;;;;;;7.80;6.05;;;692.10;2355.20;;;;;;5093933;28;20043;-78
2021/07/18 09:14:06;;;;;;;18.25;6.82;;;716.90;2406.40;;;;;;5092795;28;20048;-78
2021/07/18 09:16:38;;;;;;;13.10;10.27;;;717.00;2380.80;;;;;;5093941;28;20031;-80
2021/07/18 09:19:19;;;;;;;10.07;5.60;;;717.00;2329.60;;;;;;5092086;28;20550;-77
2021/07/18 09:22:10;;;;;;;16.60;8.88;;;717.20;2304.00;;;;;;5092249;28;20024;-78
2021/07/18 09:24:38;;;;;;;10.38;8.55;;;717.20;2252.80;;;;;;5093561;28;20031;-81
2021/07/18 09:27:13;;;;;;;8.23;5.75;;;717.40;2304.00;;;;;;5093959;28;20020;-77
2021/07/18 09:29:43;;;;;;;9.90;6.30;;;717.40;2278.40;;;;;;5093164;28;20077;-81
2021/07/18 09:32:14;;;;;;;6.85;5.75;;;717.60;2304.00;;;;;;5091391;28;20119;-79
2021/07/18 09:35:07;;;;;;;10.82;6.50;;;717.70;2278.40;;;;;;5093930;28;20534;-81
2021/07/18 09:37:38;;;;;;;10.25;5.82;;;742.40;2304.00;;;;;;5088924;28;20040;-81
2021/07/18 09:40:10;;;;;;;7.03;5.93;;;742.50;2278.40;;;;;;5073516;28;20034;-80
2021/07/18 09:42:37;;;;;;;13.70;6.40;;;742.50;2278.40;;;;;;5073229;28;20513;-77
2021/07/18 09:45:25;;;;;;;8.57;5.57;;;742.70;2278.40;;;;;;5073134;28;20474;-80
2021/07/18 09:48:01;;;;;;;10.05;6.13;;;742.90;2252.80;;;;;;5071160;28;20040;-82
2021/07/18 09:50:44;;;;;;;11.63;6.68;;;743.00;2278.40;;;;;;5073183;28;20020;-81
2021/07/18 09:53:15;;;;;;;9.82;5.80;;;743.00;2201.60;;;;;;5071878;28;20083;-78
2021/07/18 09:56:00;;;;;;;11.90;5.85;;;743.00;2176.00;;;;;;5073378;28;20020;-82
2021/07/18 09:58:27;;;;;;;10.88;6.30;;;743.00;2176.00;;;;;;5076591;28;20028;-78
2021/07/18 10:00:53;;;;;;;8.45;6.20;;;743.00;2176.00;;;;;;5091714;28;20055;-78
2021/07/18 10:03:23;;;;;;;8.32;6.18;;;743.10;2176.00;;;;;;5092944;28;20024;-82
2021/07/18 10:06:03;;;;;;;12.63;6.10;;;743.10;2150.40;;;;;;5093312;28;20099;-81
2021/07/18 10:08:30;;;;;;;8.45;5.93;;;743.20;2176.00;;;;;;5093203;28;20024;-78
2021/07/18 10:10:57;;;;;;;12.75;5.68;;;743.20;2150.40;;;;;;5093159;28;20032;-80
2021/07/18 10:13:23;;;;;;;12.88;5.88;;;768.10;2099.20;;;;;;5093130;28;20047;-80
2021/07/18 10:15:51;;;;;;;8.60;5.75;;;768.40;2124.80;;;;;;5092019;28;20438;-80
2021/07/18 10:18:19;;;;;;;8.13;5.60;;;768.50;2099.20;;;;;;5093469;28;20032;-80
2021/07/18 10:20:45;;;;;;;6.45;5.20;;;768.60;2073.60;;;;;;5117081;27;20139;-79
2021/07/18 10:23:11;;;;;;;6.72;5.10;;;768.70;2073.60;;;;;;5077082;28;20078;-87
2021/07/18 10:25:37;;;;;;;10.82;5.50;;;768.90;2022.40;;;;;;5092121;28;20024;-80
2021/07/18 10:28:04;;;;;;;6.38;5.13;;;793.60;2048.00;;;;;;5095906;28;20111;-78
2021/07/18 10:30:32;;;;;;;7.93;5.68;;;793.70;2048.00;;;;;;5096476;28;20074;-79
2021/07/18 10:32:59;;;;;;;12.77;5.75;;;793.90;2022.40;;;;;;5097039;28;20058;-76
2021/07/18 10:35:25;;;;;;;8.93;5.85;;;793.90;1971.20;;;;;;5097684;28;20082;-79
2021/07/18 10:37:52;;;;;;;8.05;5.95;;;793.90;2022.40;;;;;;5095778;28;20516;-82
2021/07/18 10:40:24;;;;;;;9.63;5.20;;;793.70;1971.20;;;;;;5096951;28;20027;-79
2021/07/18 10:42:51;;;;;;;12.45;5.80;;;793.90;1971.20;;;;;;5095906;28;20032;-81
2021/07/18 10:45:25;;;;;;;10.00;5.53;;;793.70;1996.80;;;;;;5096768;28;20020;-83
2021/07/18 10:48:07;;;;;;;13.48;5.32;;;793.70;2022.40;;;;;;5095407;28;20028;-79
2021/07/18 10:50:57;;;;;;;12.40;5.10;;;793.60;2022.40;;;;;;5096550;28;20024;-82
2021/07/18 10:53:26;;;;;;;10.43;5.70;;;793.70;1996.80;;;;;;5087427;28;20036;-82
2021/07/18 10:55:54;;;;;;;11.35;5.85;;;768.80;1996.80;;;;;;5093902;28;20118;-81
2021/07/18 10:58:38;;;;;;;9.48;5.97;;;768.60;1971.20;;;;;;5089256;28;20024;-80
2021/07/18 11:01:27;;;;;;;8.23;5.38;;;768.50;2022.40;;;;;;5092954;28;20040;-80
2021/07/18 11:03:53;;;;;;;12.18;5.28;;;768.30;2022.40;;;;;;5115610;27;20020;-80
2021/07/18 11:06:31;;;;;;;6.32;5.47;;;768.30;1996.80;;;;;;5094248;28;20036;-81
2021/07/18 11:09:05;;;;;;;11.52;6.30;;;768.10;1996.80;;;;;;5095524;28;20138;-80
2021/07/18 11:11:38;;;;;;;17.13;5.82;;;768.10;2022.40;;;;;;5095558;28;20044;-80
2021/07/18 11:14:27;;;;;;;20.77;5.68;;;768.00;2022.40;;;;;;5095901;28;20123;-81
2021/07/18 11:17:01;;;;;;;7.82;6.03;;;768.00;1996.80;;;;;;5114304;27;20099;-81
2021/07/18 11:19:38;;;;;;;9.80;7.63;;;743.30;2048.00;;;;;;5078268;28;20123;-80
2021/07/18 11:22:09;;;;;;;7.18;5.60;;;743.30;2022.40;;;;;;5096481;28;20056;-82
2021/07/18 11:24:54;;;;;;;8.18;5.20;;;743.30;2048.00;;;;;;5096284;28;20031;-79
2021/07/18 11:27:27;;;;;;;11.00;5.53;;;768.50;1996.80;;;;;;5093147;28;20036;-79
2021/07/18 11:29:54;;;;;;;7.97;5.50;;;768.90;1945.60;;;;;;5093519;28;20173;-76
2021/07/18 11:32:23;;;;;;;11.25;5.43;;;793.60;1971.20;;;;;;5094611;28;20494;-82
2021/07/18 11:34:49;;;;;;;9.68;4.95;;;768.70;1971.20;;;;;;5095772;28;20484;-78
2021/07/18 11:37:16;;;;;;;10.82;5.95;;;793.80;1920.00;;;;;;5096037;28;20020;-77
2021/07/18 11:39:43;;;;;;;9.20;5.22;;;794.20;1894.40;;;;;;5094612;28;20020;-77
2021/07/18 11:42:12;;;;;;;12.80;5.55;;;794.40;1868.80;;;;;;5095589;28;20359;-79
2021/07/18 11:44:42;;;;;;;7.43;5.10;;;794.20;1868.80;;;;;;5094662;28;20020;-78
2021/07/18 11:47:28;;;;;;;7.45;5.80;;;794.20;1868.80;;;;;;5091694;28;20109;-77
2021/07/18 11:49:53;;;;;;;;;;;794.40;1868.80;;;;;;5096003;28;20032;-78
2021/07/18 11:52:22;;;;;;;;;;;794.50;1868.80;;;;;;5095852;28;19934;-76
2021/07/18 11:54:47;;;;;;;10.60;5.47;;;794.50;1868.80;;;;;;5095092;28;19914;-78
2021/07/18 11:57:17;;;;;;;6.50;4.78;;;819.20;1843.20;;;;;;5093503;28;20028;-80
2021/07/18 11:59:48;;;;;;;8.45;5.22;;;819.40;1792.00;;;;;;5093293;28;20039;-80
2021/07/18 12:02:16;;;;;;;9.52;5.22;;;819.60;1817.60;;;;;;5094996;28;20035;-81
2021/07/18 12:04:42;;;;;;;10.52;4.53;;;819.50;1843.20;;;;;;5093621;28;20028;-79
2021/07/18 12:07:10;;;;;;;15.13;5.82;;;819.50;1817.60;;;;;;5119339;27;20739;-81
2021/07/18 12:09:39;;;;;;;10.75;5.57;;;819.70;1843.20;;;;;;5093875;28;20043;-79
2021/07/18 12:12:11;;;;;;;6.47;5.18;;;819.80;1766.40;;;;;;5092932;28;20131;-81